createdAt,value
2018-11-20T00:00:08.952Z,4.75
2018-11-20T00:00:35.080Z,4.84
2018-11-20T00:01:01.216Z,4.78
2018-11-20T00:01:27.348Z,4.75
2018-11-20T00:01:53.481Z,4.75
2018-11-20T00:02:19.613Z,4.82
2018-11-20T00:02:45.750Z,4.78
2018-11-20T00:03:11.882Z,4.74
2018-11-20T00:03:38.007Z,4.75
2018-11-20T00:04:04.146Z,4.78
2018-11-20T00:04:30.270Z,4.75
2018-11-20T00:04:56.403Z,4.78
2018-11-20T00:05:22.645Z,4.77
2018-11-20T00:05:48.682Z,4.71
2018-11-20T00:06:14.820Z,4.74
2018-11-20T00:06:40.946Z,4.63
2018-11-20T00:07:07.105Z,4.73
2018-11-20T00:07:33.241Z,4.6
2018-11-20T00:07:59.370Z,4.56
2018-11-20T00:08:25.524Z,4.53
2018-11-20T00:08:51.701Z,4.58
2018-11-20T00:09:17.833Z,4.58
2018-11-20T00:09:43.965Z,4.56
2018-11-20T00:10:10.094Z,4.53
2018-11-20T00:10:36.244Z,4.49
2018-11-20T00:11:02.380Z,4.52
2018-11-20T00:11:28.536Z,4.5
2018-11-20T00:11:54.657Z,4.45
2018-11-20T00:12:20.797Z,4.45
2018-11-20T00:12:46.927Z,4.38
2018-11-20T00:13:13.055Z,4.38
2018-11-20T00:13:39.211Z,4.42
2018-11-20T00:14:05.338Z,4.32
2018-11-20T00:14:31.470Z,4.34
2018-11-20T00:14:57.598Z,4.3
2018-11-20T00:15:23.733Z,4.28
2018-11-20T00:15:49.867Z,4.3
2018-11-20T00:16:16.017Z,4.24
2018-11-20T00:16:42.153Z,4.24
2018-11-20T00:17:08.283Z,4.34
2018-11-20T00:17:34.410Z,4.35
2018-11-20T00:18:00.542Z,4.32
2018-11-20T00:18:26.703Z,4.42
2018-11-20T00:18:52.829Z,4.42
2018-11-20T00:19:18.977Z,4.37
2018-11-20T00:19:45.088Z,4.35
2018-11-20T00:20:11.224Z,4.31
2018-11-20T00:20:37.352Z,4.35
2018-11-20T00:21:03.513Z,4.34
2018-11-20T00:21:29.660Z,4.37
2018-11-20T00:21:55.794Z,4.34
2018-11-20T00:22:21.950Z,4.31
2018-11-20T00:22:48.079Z,4.4
2018-11-20T00:23:14.209Z,4.34
2018-11-20T00:23:40.372Z,4.32
2018-11-20T00:24:06.503Z,4.35
2018-11-20T00:24:32.657Z,4.32
2018-11-20T00:24:58.788Z,4.38
2018-11-20T00:25:24.909Z,4.35
2018-11-20T00:25:51.078Z,4.37
2018-11-20T00:26:17.212Z,4.37
2018-11-20T00:26:43.369Z,4.38
2018-11-20T00:27:09.492Z,4.2
2018-11-20T00:27:35.623Z,4.19
2018-11-20T00:28:01.772Z,4.3
2018-11-20T00:28:27.906Z,4.2
2018-11-20T00:28:54.040Z,4.31
2018-11-20T00:29:20.165Z,4.34
2018-11-20T00:29:46.292Z,4.24
2018-11-20T00:30:12.429Z,4.3
2018-11-20T00:30:38.605Z,4.32
2018-11-20T00:31:04.737Z,4.28
2018-11-20T00:31:30.869Z,4.23
2018-11-20T00:31:57.002Z,4.31
2018-11-20T00:32:23.159Z,4.3
2018-11-20T00:32:49.288Z,4.2
2018-11-20T00:33:15.420Z,4.22
2018-11-20T00:33:41.547Z,4.3
2018-11-20T00:34:07.685Z,4.34
2018-11-20T00:34:33.811Z,4.34
2018-11-20T00:34:59.946Z,4.31
2018-11-20T00:35:26.091Z,4.3
2018-11-20T00:35:52.221Z,4.38
2018-11-20T00:36:18.353Z,4.38
2018-11-20T00:36:44.485Z,4.37
2018-11-20T00:37:10.618Z,4.38
2018-11-20T00:37:36.753Z,4.48
2018-11-20T00:38:02.882Z,4.48
2018-11-20T00:38:29.012Z,4.48
2018-11-20T00:38:55.154Z,4.48
2018-11-20T00:39:21.305Z,4.48
2018-11-20T00:39:47.442Z,4.5
2018-11-20T00:40:13.563Z,4.44
2018-11-20T00:40:39.749Z,4.44
2018-11-20T00:41:05.883Z,4.48
2018-11-20T00:41:32.035Z,4.41
2018-11-20T00:41:58.189Z,4.45
2018-11-20T00:42:24.381Z,4.52
2018-11-20T00:42:50.484Z,4.5
2018-11-20T00:43:16.615Z,4.48
2018-11-20T00:43:42.745Z,4.45
2018-11-20T00:44:08.871Z,4.42
2018-11-20T00:44:35.013Z,4.32
2018-11-20T00:45:01.162Z,4.48
2018-11-20T00:45:27.317Z,4.5
2018-11-20T00:45:53.447Z,4.4
2018-11-20T00:46:19.575Z,4.53
2018-11-20T00:46:45.727Z,4.5
2018-11-20T00:47:11.865Z,4.45
2018-11-20T00:47:38.015Z,4.45
2018-11-20T00:48:04.140Z,4.5
2018-11-20T00:48:30.273Z,4.45
2018-11-20T00:48:56.404Z,4.48
2018-11-20T00:49:22.554Z,4.53
2018-11-20T00:49:48.665Z,4.52
2018-11-20T00:50:14.804Z,4.52
2018-11-20T00:50:40.950Z,4.53
2018-11-20T00:51:07.111Z,4.5
2018-11-20T00:51:33.238Z,4.58
2018-11-20T00:51:59.377Z,4.63
2018-11-20T00:52:25.522Z,4.5
2018-11-20T00:52:51.659Z,4.53
2018-11-20T00:53:17.789Z,4.52
2018-11-20T00:53:43.938Z,4.5
2018-11-20T00:54:10.065Z,4.49
2018-11-20T00:54:36.202Z,4.59
2018-11-20T00:55:02.338Z,4.53
2018-11-20T00:55:28.467Z,4.48
2018-11-20T00:55:54.597Z,4.48
2018-11-20T00:56:20.757Z,4.49
2018-11-20T00:56:46.887Z,4.49
2018-11-20T00:57:13.013Z,4.49
2018-11-20T00:57:39.541Z,4.44
2018-11-20T00:58:05.672Z,4.52
2018-11-20T00:58:31.819Z,4.59
2018-11-20T00:58:57.953Z,4.58
2018-11-20T00:59:24.093Z,4.52
2018-11-20T00:59:50.227Z,4.55
2018-11-20T01:00:16.362Z,4.56
2018-11-20T01:00:42.495Z,4.59
2018-11-20T01:01:08.625Z,4.56
2018-11-20T01:01:34.794Z,4.53
2018-11-20T01:02:00.931Z,4.55
2018-11-20T01:02:27.760Z,4.7
2018-11-20T01:02:53.887Z,4.7
2018-11-20T01:03:20.023Z,4.68
2018-11-20T01:03:47.414Z,4.68
2018-11-20T01:04:13.389Z,4.68
2018-11-20T01:04:39.528Z,4.71
2018-11-20T01:05:05.655Z,4.67
2018-11-20T01:05:31.818Z,4.7
2018-11-20T01:05:57.956Z,4.71
2018-11-20T01:06:24.142Z,4.67
2018-11-20T01:06:50.279Z,4.66
2018-11-20T01:07:16.443Z,4.67
2018-11-20T01:07:42.567Z,4.67
2018-11-20T01:08:08.698Z,4.66
2018-11-20T01:08:34.875Z,4.7
2018-11-20T01:09:01.008Z,4.73
2018-11-20T01:09:27.177Z,4.68
2018-11-20T01:09:53.368Z,4.78
2018-11-20T01:10:19.490Z,4.74
2018-11-20T01:10:45.622Z,4.75
2018-11-20T01:11:11.793Z,4.71
2018-11-20T01:11:37.939Z,4.73
2018-11-20T01:12:04.076Z,4.68
2018-11-20T01:12:30.200Z,4.7
2018-11-20T01:12:56.966Z,4.74
2018-11-20T01:13:23.112Z,4.78
2018-11-20T01:13:49.251Z,4.75
2018-11-20T01:14:15.378Z,4.75
2018-11-20T01:14:41.516Z,4.75
2018-11-20T01:15:07.645Z,4.82
2018-11-20T01:15:33.777Z,4.77
2018-11-20T01:15:59.916Z,4.77
2018-11-20T01:16:26.042Z,4.7
2018-11-20T01:16:52.166Z,4.77
2018-11-20T01:17:18.303Z,4.73
2018-11-20T01:17:44.430Z,4.7
2018-11-20T01:18:10.569Z,4.77
2018-11-20T01:18:36.720Z,4.75
2018-11-20T01:19:02.849Z,4.82
2018-11-20T01:19:29.005Z,4.82
2018-11-20T01:19:55.141Z,4.71
2018-11-20T01:20:21.300Z,4.86
2018-11-20T01:20:47.449Z,4.77
2018-11-20T01:21:13.583Z,4.8
2018-11-20T01:21:39.741Z,4.74
2018-11-20T01:22:05.879Z,4.78
2018-11-20T01:22:32.028Z,4.73
2018-11-20T01:22:58.164Z,4.73
2018-11-20T01:23:24.318Z,4.7
2018-11-20T01:23:50.472Z,4.67
2018-11-20T01:24:16.630Z,4.62
2018-11-20T01:24:42.763Z,4.62
2018-11-20T01:25:08.894Z,4.68
2018-11-20T01:25:35.017Z,4.67
2018-11-20T01:26:01.145Z,4.67
2018-11-20T01:26:27.268Z,4.67
2018-11-20T01:26:53.404Z,4.59
2018-11-20T01:27:19.537Z,4.62
2018-11-20T01:27:45.669Z,4.59
2018-11-20T01:28:11.828Z,4.62
2018-11-20T01:28:37.958Z,4.67
2018-11-20T01:29:04.095Z,4.66
2018-11-20T01:29:30.221Z,4.59
2018-11-20T01:29:56.376Z,4.58
2018-11-20T01:30:22.505Z,4.53
2018-11-20T01:30:48.631Z,4.59
2018-11-20T01:31:14.790Z,4.62
2018-11-20T01:31:40.951Z,4.6
2018-11-20T01:32:07.054Z,4.56
2018-11-20T01:32:33.210Z,4.58
2018-11-20T01:32:59.343Z,4.59
2018-11-20T01:33:25.476Z,4.56
2018-11-20T01:33:51.605Z,4.59
2018-11-20T01:34:17.735Z,4.59
2018-11-20T01:34:43.871Z,4.53
2018-11-20T01:35:10.035Z,4.58
2018-11-20T01:35:36.172Z,4.58
2018-11-20T01:36:02.301Z,4.63
2018-11-20T01:36:28.430Z,4.56
2018-11-20T01:36:54.560Z,4.66
2018-11-20T01:37:20.694Z,4.68
2018-11-20T01:37:46.821Z,4.67
2018-11-20T01:38:12.951Z,4.62
2018-11-20T01:38:39.109Z,4.74
2018-11-20T01:39:05.261Z,4.63
2018-11-20T01:39:31.390Z,4.73
2018-11-20T01:39:57.523Z,4.82
2018-11-20T01:40:23.651Z,4.8
2018-11-20T01:40:49.794Z,4.75
2018-11-20T01:41:15.968Z,4.84
2018-11-20T01:41:42.044Z,4.82
2018-11-20T01:42:08.197Z,4.84
2018-11-20T01:42:34.349Z,4.82
2018-11-20T01:43:00.501Z,4.78
2018-11-20T01:43:26.636Z,4.78
2018-11-20T01:43:52.786Z,4.8
2018-11-20T01:44:18.937Z,4.73
2018-11-20T01:44:45.074Z,4.75
2018-11-20T01:45:11.235Z,4.78
2018-11-20T01:45:37.362Z,4.78
2018-11-20T01:46:03.500Z,4.82
2018-11-20T01:46:29.656Z,4.73
2018-11-20T01:46:55.786Z,4.77
2018-11-20T01:47:21.928Z,4.78
2018-11-20T01:47:48.054Z,4.78
2018-11-20T01:48:14.186Z,4.84
2018-11-20T01:48:40.346Z,4.84
2018-11-20T01:49:06.473Z,4.75
2018-11-20T01:49:32.602Z,4.84
2018-11-20T01:49:58.734Z,4.8
2018-11-20T01:50:24.866Z,4.87
2018-11-20T01:50:50.992Z,4.9
2018-11-20T01:51:17.161Z,4.9
2018-11-20T01:51:43.297Z,4.86
2018-11-20T01:52:09.450Z,4.78
2018-11-20T01:52:35.597Z,4.82
2018-11-20T01:53:01.734Z,4.78
2018-11-20T01:53:27.893Z,4.82
2018-11-20T01:53:54.025Z,4.89
2018-11-20T01:54:20.148Z,4.86
2018-11-20T01:54:46.286Z,4.78
2018-11-20T01:55:12.413Z,4.8
2018-11-20T01:55:38.543Z,4.74
2018-11-20T01:56:04.673Z,4.75
2018-11-20T01:56:30.832Z,4.73
2018-11-20T01:56:56.964Z,4.77
2018-11-20T01:57:23.096Z,4.75
2018-11-20T01:57:49.227Z,4.74
2018-11-20T01:58:15.379Z,4.73
2018-11-20T01:58:41.512Z,4.74
2018-11-20T01:59:07.649Z,4.73
2018-11-20T01:59:33.805Z,4.74
2018-11-20T01:59:59.929Z,4.74
2018-11-20T02:00:26.069Z,4.73
2018-11-20T02:00:52.196Z,4.66
2018-11-20T02:01:18.334Z,4.73
2018-11-20T02:01:44.459Z,4.7
2018-11-20T02:02:10.595Z,4.7
2018-11-20T02:02:36.749Z,4.63
2018-11-20T02:03:02.876Z,4.67
2018-11-20T02:03:29.029Z,4.7
2018-11-20T02:03:55.181Z,4.7
2018-11-20T02:04:21.330Z,4.68
2018-11-20T02:04:47.457Z,4.62
2018-11-20T02:05:13.590Z,4.63
2018-11-20T02:05:39.717Z,4.67
2018-11-20T02:06:05.849Z,4.74
2018-11-20T02:06:31.995Z,4.68
2018-11-20T02:06:58.128Z,4.71
2018-11-20T02:07:24.262Z,4.74
2018-11-20T02:07:50.391Z,4.7
2018-11-20T02:08:16.521Z,4.7
2018-11-20T02:08:42.671Z,4.73
2018-11-20T02:09:08.808Z,4.7
2018-11-20T02:09:34.940Z,4.7
2018-11-20T02:10:01.075Z,4.67
2018-11-20T02:10:27.229Z,4.62
2018-11-20T02:10:53.365Z,4.7
2018-11-20T02:11:19.498Z,4.73
2018-11-20T02:11:45.634Z,4.78
2018-11-20T02:12:11.764Z,4.78
2018-11-20T02:12:37.893Z,4.75
2018-11-20T02:13:04.023Z,4.75
2018-11-20T02:13:30.189Z,4.82
2018-11-20T02:13:56.325Z,4.78
2018-11-20T02:14:22.459Z,4.93
2018-11-20T02:14:48.590Z,4.8
2018-11-20T02:15:14.747Z,4.8
2018-11-20T02:15:40.881Z,4.89
2018-11-20T02:16:07.033Z,4.8
2018-11-20T02:16:33.181Z,4.87
2018-11-20T02:16:59.337Z,4.78
2018-11-20T02:17:25.471Z,4.86
2018-11-20T02:17:51.598Z,4.93
2018-11-20T02:18:17.732Z,4.84
2018-11-20T02:18:43.886Z,4.94
2018-11-20T02:19:10.063Z,4.78
2018-11-20T02:19:36.186Z,4.77
2018-11-20T02:20:02.319Z,4.86
2018-11-20T02:20:28.452Z,4.84
2018-11-20T02:20:54.579Z,4.78
2018-11-20T02:21:20.714Z,4.78
2018-11-20T02:21:46.843Z,4.78
2018-11-20T02:22:12.977Z,4.75
2018-11-20T02:22:39.104Z,4.84
2018-11-20T02:23:05.234Z,4.82
2018-11-20T02:23:31.360Z,4.77
2018-11-20T02:23:57.498Z,4.78
2018-11-20T02:24:23.644Z,4.84
2018-11-20T02:24:49.771Z,4.94
2018-11-20T02:25:15.907Z,4.84
2018-11-20T02:25:42.062Z,4.8
2018-11-20T02:26:08.214Z,4.84
2018-11-20T02:26:34.340Z,4.82
2018-11-20T02:27:00.500Z,4.84
2018-11-20T02:27:26.659Z,4.82
2018-11-20T02:27:52.791Z,4.84
2018-11-20T02:28:18.929Z,4.82
2018-11-20T02:28:45.048Z,4.82
2018-11-20T02:29:11.202Z,4.82
2018-11-20T02:29:37.336Z,4.74
2018-11-20T02:30:03.478Z,4.78
2018-11-20T02:30:29.658Z,4.73
2018-11-20T02:30:55.812Z,4.75
2018-11-20T02:31:21.952Z,4.75
2018-11-20T02:31:48.083Z,4.7
2018-11-20T02:32:14.213Z,4.7
2018-11-20T02:32:40.345Z,4.7
2018-11-20T02:33:06.496Z,4.67
2018-11-20T02:33:32.639Z,4.68
2018-11-20T02:33:58.791Z,4.71
2018-11-20T02:34:24.945Z,4.62
2018-11-20T02:34:51.098Z,4.62
2018-11-20T02:35:17.224Z,4.53
2018-11-20T02:35:43.359Z,4.59
2018-11-20T02:36:09.490Z,4.62
2018-11-20T02:36:35.621Z,4.67
2018-11-20T02:37:01.781Z,4.63
2018-11-20T02:37:27.906Z,4.63
2018-11-20T02:37:54.042Z,4.63
2018-11-20T02:38:20.215Z,4.63
2018-11-20T02:38:46.347Z,4.67
2018-11-20T02:39:12.505Z,4.7
2018-11-20T02:39:38.632Z,4.56
2018-11-20T02:40:04.788Z,4.7
2018-11-20T02:40:30.948Z,4.68
2018-11-20T02:40:57.077Z,4.67
2018-11-20T02:41:23.206Z,4.6
2018-11-20T02:41:49.336Z,4.6
2018-11-20T02:42:15.473Z,4.58
2018-11-20T02:42:41.627Z,4.58
2018-11-20T02:43:07.752Z,4.58
2018-11-20T02:43:33.882Z,4.6
2018-11-20T02:44:00.022Z,4.58
2018-11-20T02:44:26.168Z,4.67
2018-11-20T02:44:52.323Z,4.67
2018-11-20T02:45:18.452Z,4.7
2018-11-20T02:45:44.611Z,4.67
2018-11-20T02:46:10.739Z,4.7
2018-11-20T02:46:36.870Z,4.53
2018-11-20T02:47:03.026Z,4.56
2018-11-20T02:47:29.161Z,4.56
2018-11-20T02:47:55.287Z,4.56
2018-11-20T02:48:21.420Z,4.6
2018-11-20T02:48:48.204Z,4.63
2018-11-20T02:49:14.544Z,4.63
2018-11-20T02:49:40.665Z,4.74
2018-11-20T02:50:06.802Z,4.67
2018-11-20T02:50:32.949Z,4.67
2018-11-20T02:50:59.587Z,4.67
2018-11-20T02:51:25.785Z,4.7
2018-11-20T02:51:51.895Z,4.67
2018-11-20T02:52:18.025Z,4.68
2018-11-20T02:52:44.155Z,4.7
2018-11-20T02:53:10.286Z,4.7
2018-11-20T02:53:36.436Z,4.73
2018-11-20T02:54:02.564Z,4.63
2018-11-20T02:54:28.696Z,4.73
2018-11-20T02:54:54.831Z,4.73
2018-11-20T02:55:20.985Z,4.7
2018-11-20T02:55:47.119Z,4.67
2018-11-20T02:56:13.251Z,4.68
2018-11-20T02:56:39.418Z,4.78
2018-11-20T02:57:05.554Z,4.68
2018-11-20T02:57:31.709Z,4.68
2018-11-20T02:57:57.867Z,4.66
2018-11-20T02:58:24.026Z,4.73
2018-11-20T02:58:50.174Z,4.63
2018-11-20T02:59:16.336Z,4.7
2018-11-20T02:59:42.479Z,4.67
2018-11-20T03:00:08.625Z,4.68
2018-11-20T03:00:34.784Z,4.7
2018-11-20T03:01:00.937Z,4.7
2018-11-20T03:01:27.093Z,4.67
2018-11-20T03:01:53.249Z,4.63
2018-11-20T03:02:19.386Z,4.59
2018-11-20T03:02:45.517Z,4.6
2018-11-20T03:03:11.645Z,4.59
2018-11-20T03:03:37.815Z,4.66
2018-11-20T03:04:03.952Z,4.71
2018-11-20T03:04:30.109Z,4.7
2018-11-20T03:04:56.256Z,4.66
2018-11-20T03:05:22.388Z,4.75
2018-11-20T03:05:48.522Z,4.7
2018-11-20T03:06:14.652Z,4.7
2018-11-20T03:06:40.804Z,4.67
2018-11-20T03:07:06.936Z,4.75
2018-11-20T03:07:33.091Z,4.74
2018-11-20T03:07:59.222Z,4.73
2018-11-20T03:08:25.350Z,4.66
2018-11-20T03:08:51.482Z,4.66
2018-11-20T03:09:17.618Z,4.67
2018-11-20T03:09:43.769Z,4.75
2018-11-20T03:10:09.897Z,4.68
2018-11-20T03:10:36.055Z,4.68
2018-11-20T03:11:02.189Z,4.7
2018-11-20T03:11:28.320Z,4.68
2018-11-20T03:11:54.480Z,4.73
2018-11-20T03:12:20.612Z,4.68
2018-11-20T03:12:46.766Z,4.7
2018-11-20T03:13:12.894Z,4.73
2018-11-20T03:13:39.053Z,4.73
2018-11-20T03:14:05.178Z,4.73
2018-11-20T03:14:31.319Z,4.7
2018-11-20T03:14:57.443Z,4.68
2018-11-20T03:15:23.575Z,4.7
2018-11-20T03:15:49.706Z,4.68
2018-11-20T03:16:15.886Z,4.63
2018-11-20T03:16:42.023Z,4.63
2018-11-20T03:17:08.171Z,4.63
2018-11-20T03:17:34.304Z,4.7
2018-11-20T03:18:00.439Z,4.74
2018-11-20T03:18:26.589Z,4.7
2018-11-20T03:18:52.728Z,4.77
2018-11-20T03:19:18.849Z,4.74
2018-11-20T03:19:45.010Z,4.75
2018-11-20T03:20:11.133Z,4.74
2018-11-20T03:20:37.271Z,4.82
2018-11-20T03:21:03.407Z,4.73
2018-11-20T03:21:29.555Z,4.8
2018-11-20T03:21:55.688Z,4.82
2018-11-20T03:22:21.829Z,4.82
2018-11-20T03:22:47.957Z,4.82
2018-11-20T03:23:14.114Z,4.82
2018-11-20T03:23:40.244Z,4.73
2018-11-20T03:24:06.390Z,4.77
2018-11-20T03:24:32.525Z,4.82
2018-11-20T03:24:58.659Z,4.74
2018-11-20T03:25:24.784Z,4.77
2018-11-20T03:25:50.916Z,4.67
2018-11-20T03:26:17.076Z,4.77
2018-11-20T03:26:43.283Z,4.8
2018-11-20T03:27:09.472Z,4.86
2018-11-20T03:27:35.494Z,4.8
2018-11-20T03:28:01.628Z,4.82
2018-11-20T03:28:27.755Z,4.84
2018-11-20T03:28:53.887Z,4.78
2018-11-20T03:29:20.017Z,4.84
2018-11-20T03:29:46.183Z,4.92
2018-11-20T03:30:12.318Z,4.92
2018-11-20T03:30:38.447Z,4.96
2018-11-20T03:31:04.578Z,4.92
2018-11-20T03:31:30.709Z,4.97
2018-11-20T03:31:56.888Z,4.92
2018-11-20T03:32:23.020Z,4.99
2018-11-20T03:32:49.155Z,5.04
2018-11-20T03:33:15.280Z,5
2018-11-20T03:33:41.413Z,4.89
2018-11-20T03:34:07.541Z,4.89
2018-11-20T03:34:33.701Z,4.9
2018-11-20T03:34:59.877Z,4.9
2018-11-20T03:35:26.018Z,4.94
2018-11-20T03:35:52.194Z,4.94
2018-11-20T03:36:18.400Z,4.96
2018-11-20T03:36:44.427Z,4.93
2018-11-20T03:37:10.571Z,4.93
2018-11-20T03:37:36.688Z,4.9
2018-11-20T03:38:02.819Z,4.94
2018-11-20T03:38:28.949Z,4.97
2018-11-20T03:38:55.105Z,4.9
2018-11-20T03:39:21.236Z,4.96
2018-11-20T03:39:47.372Z,4.93
2018-11-20T03:40:13.499Z,4.86
2018-11-20T03:40:39.624Z,4.92
2018-11-20T03:41:05.753Z,4.93
2018-11-20T03:41:31.893Z,4.93
2018-11-20T03:41:58.062Z,4.93
2018-11-20T03:42:24.222Z,4.87
2018-11-20T03:42:50.355Z,4.93
2018-11-20T03:43:16.484Z,4.94
2018-11-20T03:43:42.625Z,4.92
2018-11-20T03:44:08.749Z,4.92
2018-11-20T03:44:34.872Z,4.96
2018-11-20T03:45:01.000Z,4.93
2018-11-20T03:45:27.155Z,4.87
2018-11-20T03:45:53.295Z,4.96
2018-11-20T03:46:19.418Z,4.92
2018-11-20T03:46:45.544Z,4.92
2018-11-20T03:47:11.685Z,4.87
2018-11-20T03:47:37.828Z,4.87
2018-11-20T03:48:04.082Z,4.94
2018-11-20T03:48:30.124Z,4.93
2018-11-20T03:48:56.281Z,4.99
2018-11-20T03:49:22.410Z,4.9
2018-11-20T03:49:48.542Z,4.9
2018-11-20T03:50:14.723Z,5.04
2018-11-20T03:50:40.857Z,4.92
2018-11-20T03:51:06.992Z,4.93
2018-11-20T03:51:33.115Z,4.93
2018-11-20T03:51:59.250Z,4.99
2018-11-20T03:52:25.379Z,4.87
2018-11-20T03:52:51.513Z,4.96
2018-11-20T03:53:17.635Z,4.9
2018-11-20T03:53:43.766Z,4.96
2018-11-20T03:54:09.901Z,4.87
2018-11-20T03:54:36.027Z,4.82
2018-11-20T03:55:02.162Z,4.77
2018-11-20T03:55:28.337Z,4.84
2018-11-20T03:55:54.472Z,4.75
2018-11-20T03:56:20.607Z,4.8
2018-11-20T03:56:46.766Z,4.78
2018-11-20T03:57:12.920Z,4.84
2018-11-20T03:57:39.052Z,4.75
2018-11-20T03:58:05.190Z,4.82
2018-11-20T03:58:31.340Z,4.78
2018-11-20T03:58:57.474Z,4.8
2018-11-20T03:59:23.626Z,4.8
2018-11-20T03:59:49.765Z,4.86
2018-11-20T04:00:15.892Z,4.8
2018-11-20T04:00:42.026Z,4.82
2018-11-20T04:01:08.153Z,4.8
2018-11-20T04:01:34.282Z,4.77
2018-11-20T04:02:00.417Z,4.8
2018-11-20T04:02:26.570Z,4.82
2018-11-20T04:02:52.700Z,4.87
2018-11-20T04:03:18.879Z,4.9
2018-11-20T04:03:45.007Z,4.92
2018-11-20T04:04:11.149Z,4.92
2018-11-20T04:04:37.271Z,4.89
2018-11-20T04:05:03.405Z,4.92
2018-11-20T04:05:29.564Z,4.89
2018-11-20T04:05:55.695Z,4.92
2018-11-20T04:06:21.829Z,4.78
2018-11-20T04:06:47.955Z,4.92
2018-11-20T04:07:14.087Z,4.84
2018-11-20T04:07:40.228Z,4.89
2018-11-20T04:08:06.354Z,4.93
2018-11-20T04:08:32.510Z,4.93
2018-11-20T04:08:58.644Z,4.96
2018-11-20T04:09:24.771Z,4.87
2018-11-20T04:09:50.901Z,4.9
2018-11-20T04:10:17.061Z,5
2018-11-20T04:10:43.187Z,5.05
2018-11-20T04:11:09.315Z,4.93
2018-11-20T04:11:35.452Z,4.87
2018-11-20T04:12:01.586Z,4.93
2018-11-20T04:12:27.715Z,4.96
2018-11-20T04:12:53.852Z,5.02
2018-11-20T04:13:19.984Z,4.9
2018-11-20T04:13:46.130Z,4.96
2018-11-20T04:14:12.268Z,4.93
2018-11-20T04:14:38.399Z,4.96
2018-11-20T04:15:04.534Z,4.92
2018-11-20T04:15:30.670Z,4.87
2018-11-20T04:15:56.799Z,4.93
2018-11-20T04:16:22.957Z,4.92
2018-11-20T04:16:49.089Z,4.99
2018-11-20T04:17:15.225Z,4.94
2018-11-20T04:17:41.432Z,4.99
2018-11-20T04:18:07.541Z,4.93
2018-11-20T04:18:33.669Z,4.97
2018-11-20T04:18:59.832Z,4.89
2018-11-20T04:19:25.959Z,4.9
2018-11-20T04:19:52.088Z,4.94
2018-11-20T04:20:18.241Z,4.94
2018-11-20T04:20:44.378Z,4.99
2018-11-20T04:21:10.510Z,4.87
2018-11-20T04:21:36.660Z,5.02
2018-11-20T04:22:02.792Z,5
2018-11-20T04:22:28.925Z,4.99
2018-11-20T04:22:55.077Z,5.02
2018-11-20T04:23:21.205Z,4.99
2018-11-20T04:23:47.337Z,4.99
2018-11-20T04:24:13.465Z,4.87
2018-11-20T04:24:39.600Z,4.9
2018-11-20T04:25:05.762Z,4.93
2018-11-20T04:25:31.895Z,4.93
2018-11-20T04:25:58.010Z,4.89
2018-11-20T04:26:24.164Z,4.96
2018-11-20T04:26:50.293Z,4.94
2018-11-20T04:27:16.452Z,4.96
2018-11-20T04:27:42.581Z,4.93
2018-11-20T04:28:08.715Z,4.93
2018-11-20T04:28:34.839Z,4.9
2018-11-20T04:29:00.975Z,4.92
2018-11-20T04:29:27.105Z,4.93
2018-11-20T04:29:53.232Z,4.87
2018-11-20T04:30:19.368Z,4.96
2018-11-20T04:30:45.501Z,4.94
2018-11-20T04:31:11.679Z,4.92
2018-11-20T04:31:37.754Z,4.93
2018-11-20T04:32:03.909Z,4.86
2018-11-20T04:32:30.069Z,4.89
2018-11-20T04:32:56.201Z,4.97
2018-11-20T04:33:22.329Z,4.84
2018-11-20T04:33:48.479Z,4.96
2018-11-20T04:34:14.609Z,4.86
2018-11-20T04:34:40.763Z,4.94
2018-11-20T04:35:06.894Z,4.92
2018-11-20T04:35:33.028Z,4.9
2018-11-20T04:35:59.156Z,4.92
2018-11-20T04:36:25.293Z,4.9
2018-11-20T04:36:51.425Z,4.99
2018-11-20T04:37:17.564Z,4.97
2018-11-20T04:37:43.691Z,4.99
2018-11-20T04:38:09.820Z,5.1
2018-11-20T04:38:35.982Z,4.99
2018-11-20T04:39:02.116Z,5.1
2018-11-20T04:39:28.246Z,5.12
2018-11-20T04:39:54.377Z,5.05
2018-11-20T04:40:20.511Z,4.97
2018-11-20T04:40:46.666Z,5.02
2018-11-20T04:41:12.828Z,4.93
2018-11-20T04:41:38.953Z,5
2018-11-20T04:42:05.100Z,5.04
2018-11-20T04:42:31.238Z,5.02
2018-11-20T04:42:57.365Z,5.04
2018-11-20T04:43:23.503Z,5.07
2018-11-20T04:43:49.637Z,5.04
2018-11-20T04:44:15.770Z,5
2018-11-20T04:44:41.918Z,5.07
2018-11-20T04:45:08.048Z,5.1
2018-11-20T04:45:34.180Z,5.02
2018-11-20T04:46:00.317Z,5.02
2018-11-20T04:46:26.464Z,4.99
2018-11-20T04:46:52.590Z,5.05
2018-11-20T04:47:18.749Z,5.04
2018-11-20T04:47:44.878Z,4.94
2018-11-20T04:48:11.031Z,4.96
2018-11-20T04:48:37.166Z,5.04
2018-11-20T04:49:03.323Z,4.97
2018-11-20T04:49:29.456Z,4.93
2018-11-20T04:49:55.729Z,5.05
2018-11-20T04:50:21.773Z,4.97
2018-11-20T04:50:47.931Z,4.89
2018-11-20T04:51:14.063Z,4.93
2018-11-20T04:51:40.214Z,4.9
2018-11-20T04:52:06.385Z,4.94
2018-11-20T04:52:32.569Z,4.93
2018-11-20T04:52:58.739Z,4.93
2018-11-20T04:53:24.876Z,4.93
2018-11-20T04:53:51.055Z,4.96
2018-11-20T04:54:17.200Z,4.92
2018-11-20T04:54:43.320Z,5
2018-11-20T04:55:09.449Z,4.93
2018-11-20T04:55:35.578Z,4.94
2018-11-20T04:56:01.711Z,4.92
2018-11-20T04:56:27.850Z,5.07
2018-11-20T04:56:53.980Z,5
2018-11-20T04:57:20.121Z,5.08
2018-11-20T04:57:46.358Z,5.04
2018-11-20T04:58:12.376Z,4.99
2018-11-20T04:58:38.531Z,4.99
2018-11-20T04:59:04.667Z,5.04
2018-11-20T04:59:30.790Z,5.02
2018-11-20T04:59:56.948Z,5.12
2018-11-20T05:00:23.091Z,4.94
2018-11-20T05:00:49.244Z,5.07
2018-11-20T05:01:15.404Z,5.02
2018-11-20T05:01:41.532Z,4.97
2018-11-20T05:02:07.668Z,4.97
2018-11-20T05:02:33.805Z,5.04
2018-11-20T05:02:59.953Z,5
2018-11-20T05:03:26.112Z,5
2018-11-20T05:03:52.237Z,5.08
2018-11-20T05:04:18.374Z,5.02
2018-11-20T05:04:44.518Z,5.02
2018-11-20T05:05:10.650Z,5.02
2018-11-20T05:05:36.781Z,5.07
2018-11-20T05:06:02.919Z,5.05
2018-11-20T05:06:29.053Z,5.02
2018-11-20T05:06:55.288Z,5.15
2018-11-20T05:07:21.333Z,5.11
2018-11-20T05:07:47.492Z,5.12
2018-11-20T05:08:13.645Z,5.07
2018-11-20T05:08:39.775Z,5.07
2018-11-20T05:09:05.911Z,5.1
2018-11-20T05:09:32.043Z,5.1
2018-11-20T05:09:58.174Z,5.12
2018-11-20T05:10:24.331Z,5.11
2018-11-20T05:10:50.502Z,5.05
2018-11-20T05:11:16.614Z,5.07
2018-11-20T05:11:42.746Z,5
2018-11-20T05:12:08.878Z,5.1
2018-11-20T05:12:35.010Z,5.1
2018-11-20T05:13:01.177Z,5.07
2018-11-20T05:13:27.483Z,5.11
2018-11-20T05:13:53.491Z,5.1
2018-11-20T05:14:19.643Z,5
2018-11-20T05:14:45.790Z,5.05
2018-11-20T05:15:11.962Z,5.1
2018-11-20T05:15:38.122Z,5.07
2018-11-20T05:16:04.251Z,5.12
2018-11-20T05:16:30.407Z,5.15
2018-11-20T05:16:56.534Z,5.11
2018-11-20T05:17:22.716Z,5.08
2018-11-20T05:17:48.842Z,5.12
2018-11-20T05:18:14.973Z,5.04
2018-11-20T05:18:41.113Z,4.99
2018-11-20T05:19:07.237Z,5.02
2018-11-20T05:19:33.369Z,4.99
2018-11-20T05:19:59.507Z,5.07
2018-11-20T05:20:25.634Z,5.1
2018-11-20T05:20:51.771Z,5
2018-11-20T05:21:17.922Z,4.99
2018-11-20T05:21:44.063Z,4.97
2018-11-20T05:22:10.190Z,5
2018-11-20T05:22:36.325Z,5.02
2018-11-20T05:23:02.463Z,5
2018-11-20T05:23:28.596Z,5.05
2018-11-20T05:23:54.754Z,5.04
2018-11-20T05:24:20.910Z,4.94
2018-11-20T05:24:47.038Z,5.07
2018-11-20T05:25:13.188Z,5.12
2018-11-20T05:25:39.320Z,4.99
2018-11-20T05:26:05.457Z,5.07
2018-11-20T05:26:31.581Z,5.1
2018-11-20T05:26:57.716Z,5.02
2018-11-20T05:27:23.846Z,4.99
2018-11-20T05:27:50.052Z,4.94
2018-11-20T05:28:16.149Z,4.96
2018-11-20T05:28:42.281Z,5.08
2018-11-20T05:29:08.408Z,5.02
2018-11-20T05:29:34.593Z,5.05
2018-11-20T05:30:00.724Z,5.1
2018-11-20T05:30:26.878Z,5.05
2018-11-20T05:30:53.016Z,5.05
2018-11-20T05:31:19.160Z,5.04
2018-11-20T05:31:45.297Z,5.02
2018-11-20T05:32:11.428Z,5.02
2018-11-20T05:32:37.558Z,5.07
2018-11-20T05:33:03.688Z,5.14
2018-11-20T05:33:29.843Z,5.08
2018-11-20T05:33:55.979Z,5.08
2018-11-20T05:34:22.108Z,5.15
2018-11-20T05:34:48.246Z,5.08
2018-11-20T05:35:14.401Z,5.15
2018-11-20T05:35:40.530Z,5.11
2018-11-20T05:36:06.667Z,5.11
2018-11-20T05:36:32.800Z,5.1
2018-11-20T05:36:58.932Z,5.17
2018-11-20T05:37:25.091Z,5.14
2018-11-20T05:37:51.237Z,5.11
2018-11-20T05:38:17.367Z,5.12
2018-11-20T05:38:43.521Z,5.11
2018-11-20T05:39:09.652Z,5.17
2018-11-20T05:39:35.781Z,5.07
2018-11-20T05:40:01.914Z,5.11
2018-11-20T05:40:28.145Z,5.15
2018-11-20T05:40:54.205Z,5.17
2018-11-20T05:41:20.339Z,5.15
2018-11-20T05:41:46.478Z,5.25
2018-11-20T05:42:12.644Z,5.23
2018-11-20T05:42:38.771Z,5.21
2018-11-20T05:43:04.939Z,5.15
2018-11-20T05:43:31.083Z,5.15
2018-11-20T05:43:57.270Z,5.15
2018-11-20T05:44:23.403Z,5.15
2018-11-20T05:44:49.530Z,5.12
2018-11-20T05:45:15.666Z,5.15
2018-11-20T05:45:41.824Z,5.28
2018-11-20T05:46:07.989Z,5.04
2018-11-20T05:46:34.153Z,5.07
2018-11-20T05:47:00.376Z,5.07
2018-11-20T05:47:26.407Z,5.25
2018-11-20T05:47:52.541Z,5.04
2018-11-20T05:48:18.679Z,5.04
2018-11-20T05:48:44.830Z,5.07
2018-11-20T05:49:10.958Z,5.08
2018-11-20T05:49:37.091Z,5.11
2018-11-20T05:50:03.221Z,5.1